ADDS TAF Data INFO
IDs: Format: Raw Decoded Include METARs

Data at: 0733 UTC 20 Nov 2017

KISO 200521Z 2006/2106 VRB03KT P6SM SKC AMD LTD TO CLD VIS AND WIND